createdAt,value
2022-08-01T00:00:09.943Z,101014.97
2022-08-01T00:02:41.061Z,101016.75
2022-08-01T00:05:09.639Z,101020.97
2022-08-01T00:07:36.957Z,101019.06
2022-08-01T00:10:10.519Z,101026.91
2022-08-01T00:12:37.743Z,101030.31
2022-08-01T00:15:10.288Z,101029.47
2022-08-01T00:17:37.535Z,101024.78
2022-08-01T00:20:07.904Z,101021.16
2022-08-01T00:22:35.799Z,101010.44
2022-08-01T00:25:04.483Z,101011.25
2022-08-01T00:27:32.539Z,101006.75
2022-08-01T00:30:13.637Z,100988.19
2022-08-01T00:32:43.338Z,100983.81
2022-08-01T00:35:10.876Z,100984.72
2022-08-01T00:37:37.903Z,100987.38
2022-08-01T00:40:05.572Z,100982.06
2022-08-01T00:42:32.485Z,100976.91
2022-08-01T00:44:59.395Z,100965.34
2022-08-01T00:47:26.317Z,100972.44
2022-08-01T00:49:53.384Z,100979.59
2022-08-01T00:52:20.464Z,100978.69
2022-08-01T00:54:47.495Z,100970.91
2022-08-01T00:57:14.980Z,100972.69
2022-08-01T00:59:42.490Z,100972.91
2022-08-01T01:02:15.669Z,100971.41
2022-08-01T01:04:43.898Z,100985.38
2022-08-01T01:07:37.748Z,100978.22
2022-08-01T01:10:47.808Z,100986.25
2022-08-01T01:13:23.082Z,100988.81
2022-08-01T01:16:01.602Z,100977.34
2022-08-01T01:18:37.051Z,100983.50
2022-08-01T01:21:19.280Z,100983.50
2022-08-01T01:24:31.584Z,100984.50
2022-08-01T01:27:11.990Z,100981.16
2022-08-01T01:29:59.900Z,100975.84
2022-08-01T01:32:40.702Z,100968.03
2022-08-01T01:35:12.567Z,100976.91
2022-08-01T01:37:41.431Z,100974.34
2022-08-01T01:40:11.104Z,100978.63
2022-08-01T01:42:39.886Z,100979.47
2022-08-01T01:45:08.238Z,100972.38
2022-08-01T01:47:37.511Z,100976.84
2022-08-01T01:50:07.570Z,100965.66
2022-08-01T01:52:35.828Z,100970.69
2022-08-01T01:55:07.414Z,100980.41
2022-08-01T01:57:40.489Z,100967.09
2022-08-01T02:00:09.814Z,100964.53
2022-08-01T02:02:38.573Z,100967.03
2022-08-01T02:05:07.472Z,100968.75
2022-08-01T02:07:35.898Z,100964.41
2022-08-01T02:10:06.363Z,100963.47
2022-08-01T02:12:39.186Z,100959.91
2022-08-01T02:15:07.711Z,100962.56
2022-08-01T02:17:42.775Z,100959.94
2022-08-01T02:20:10.693Z,100953.91
2022-08-01T02:22:46.116Z,100959.16
2022-08-01T02:25:34.080Z,100956.56
2022-08-01T02:28:23.978Z,100952.28
2022-08-01T02:30:52.989Z,100961.06
2022-08-01T02:33:26.200Z,100955.75
2022-08-01T02:36:32.031Z,100963.66
2022-08-01T02:38:46.705Z,100950.41
2022-08-01T02:41:20.407Z,100953.06
2022-08-01T02:43:53.426Z,100949.53
2022-08-01T02:46:37.112Z,100952.13
2022-08-01T02:49:08.306Z,100946.81
2022-08-01T02:51:37.317Z,100942.34
2022-08-01T02:54:08.020Z,100945.84
2022-08-01T02:56:36.674Z,100944.06
2022-08-01T02:59:07.732Z,100948.53
2022-08-01T03:01:38.782Z,100934.28
2022-08-01T03:04:09.965Z,100933.38
2022-08-01T03:06:38.476Z,100938.53
2022-08-01T03:09:07.375Z,100927.25
2022-08-01T03:11:38.727Z,100941.13
2022-08-01T03:14:09.726Z,100934.91
2022-08-01T03:16:39.786Z,100940.13
2022-08-01T03:19:10.013Z,100950.00
2022-08-01T03:21:39.276Z,100951.91
2022-08-01T03:24:07.434Z,100951.97
2022-08-01T03:26:37.246Z,100947.63
2022-08-01T03:29:18.673Z,100952.94
2022-08-01T03:31:47.591Z,100966.22
2022-08-01T03:34:14.901Z,100967.97
2022-08-01T03:36:50.881Z,100962.72
2022-08-01T03:39:20.163Z,100960.94
2022-08-01T03:42:00.420Z,100961.91
2022-08-01T03:44:33.057Z,100965.41
2022-08-01T03:47:05.559Z,100961.88
2022-08-01T03:49:36.665Z,100953.06
2022-08-01T03:52:05.908Z,100968.03
2022-08-01T03:54:36.809Z,100962.69
2022-08-01T03:57:05.255Z,100963.47
2022-08-01T03:59:33.095Z,100964.28
2022-08-01T04:02:00.627Z,100964.34
2022-08-01T04:04:27.850Z,100967.75
2022-08-01T04:06:55.007Z,100957.22
2022-08-01T04:09:22.855Z,100955.47
2022-08-01T04:11:50.077Z,100960.66
2022-08-01T04:14:17.140Z,100960.59
2022-08-01T04:16:44.104Z,100967.63
2022-08-01T04:19:10.995Z,100962.28
2022-08-01T04:21:38.647Z,100964.06
2022-08-01T04:24:18.984Z,100970.09
2022-08-01T04:26:47.554Z,100961.25
2022-08-01T04:29:17.956Z,100974.41
2022-08-01T04:31:47.832Z,100964.69
2022-08-01T04:34:22.169Z,100967.28
2022-08-01T04:36:50.193Z,100970.66
2022-08-01T04:39:19.139Z,100964.38
2022-08-01T04:41:47.981Z,100966.13
2022-08-01T04:44:15.593Z,100970.50
2022-08-01T04:46:42.937Z,100980.06
2022-08-01T04:49:12.747Z,100976.47
2022-08-01T04:51:58.559Z,100977.38
2022-08-01T04:54:29.308Z,100978.22
2022-08-01T04:57:00.673Z,100991.38
2022-08-01T04:59:41.381Z,100990.53
2022-08-01T05:02:14.935Z,100983.53
2022-08-01T05:04:43.432Z,100983.53
2022-08-01T05:07:11.447Z,100989.75
2022-08-01T05:09:40.209Z,100991.50
2022-08-01T05:12:08.239Z,100993.19
2022-08-01T05:14:36.003Z,100992.28
2022-08-01T05:17:05.814Z,100993.06
2022-08-01T05:19:33.961Z,100998.28
2022-08-01T05:22:02.566Z,100992.09
2022-08-01T05:24:29.600Z,101000.94
2022-08-01T05:26:58.683Z,100997.34
2022-08-01T05:29:26.520Z,100996.38
2022-08-01T05:31:54.738Z,100994.56
2022-08-01T05:34:21.877Z,100992.69
2022-08-01T05:36:48.948Z,100994.34
2022-08-01T05:39:16.069Z,100998.63
2022-08-01T05:41:43.403Z,101000.28
2022-08-01T05:44:10.945Z,101006.34
2022-08-01T05:46:37.876Z,100997.41
2022-08-01T05:49:06.260Z,101007.91
2022-08-01T05:51:33.303Z,100999.81
2022-08-01T05:54:00.180Z,101002.28
2022-08-01T05:56:30.564Z,101004.81
2022-08-01T05:58:59.156Z,101001.31
2022-08-01T06:01:26.156Z,101009.13
2022-08-01T06:03:55.143Z,100999.19
2022-08-01T06:06:25.369Z,101004.63
2022-08-01T06:08:52.984Z,101007.09
2022-08-01T06:11:20.081Z,101015.03
2022-08-01T06:13:48.556Z,101010.50
2022-08-01T06:16:16.198Z,101016.59
2022-08-01T06:18:43.148Z,101013.81
2022-08-01T06:21:10.104Z,101013.03
2022-08-01T06:23:37.150Z,101016.28
2022-08-01T06:26:04.349Z,101014.44
2022-08-01T06:28:31.453Z,101020.44
2022-08-01T06:31:00.074Z,101024.84
2022-08-01T06:33:28.090Z,101021.22
2022-08-01T06:35:55.357Z,101026.41
2022-08-01T06:38:22.532Z,101021.06
2022-08-01T06:40:49.592Z,101027.09
2022-08-01T06:43:16.599Z,101026.19
2022-08-01T06:45:43.621Z,101029.59
2022-08-01T06:48:10.536Z,101029.59
2022-08-01T06:50:37.469Z,101031.28
2022-08-01T06:53:04.495Z,101025.09
2022-08-01T06:55:31.494Z,101029.31
2022-08-01T06:57:58.432Z,101027.47
2022-08-01T07:00:28.064Z,101027.41
2022-08-01T07:02:59.532Z,101030.03
2022-08-01T07:05:26.768Z,101026.44
2022-08-01T07:07:53.988Z,101025.44
2022-08-01T07:10:21.012Z,101029.75
2022-08-01T07:12:47.950Z,101030.41
2022-08-01T07:15:14.856Z,101033.75
2022-08-01T07:17:43.447Z,101028.25
2022-08-01T07:20:13.971Z,101033.41
2022-08-01T07:22:43.759Z,101029.72
2022-08-01T07:25:14.474Z,101026.09
2022-08-01T07:27:41.411Z,101037.59
2022-08-01T07:30:08.788Z,101034.03
2022-08-01T07:32:35.900Z,101031.28
2022-08-01T07:35:04.323Z,101036.16
2022-08-01T07:37:46.138Z,101034.06
2022-08-01T07:40:18.021Z,101018.13
2022-08-01T07:42:46.082Z,101029.09
2022-08-01T07:45:13.925Z,101028.84
2022-08-01T07:47:40.833Z,101030.31
2022-08-01T07:50:08.694Z,101043.25
2022-08-01T07:52:35.579Z,101043.97
2022-08-01T07:55:02.510Z,101043.69
2022-08-01T07:57:29.440Z,101047.06
2022-08-01T07:59:56.721Z,101052.13
2022-08-01T08:02:23.708Z,101048.31
2022-08-01T08:04:50.863Z,101046.22
2022-08-01T08:07:17.812Z,101046.66
2022-08-01T08:09:44.803Z,101044.53
2022-08-01T08:12:18.282Z,101045.88
2022-08-01T08:14:45.414Z,101056.16
2022-08-01T08:17:12.333Z,101052.28
2022-08-01T08:19:40.146Z,101056.38
2022-08-01T08:22:10.585Z,101054.28
2022-08-01T08:24:45.597Z,101047.84
2022-08-01T08:27:13.698Z,101050.22
2022-08-01T08:29:40.572Z,101046.41
2022-08-01T08:32:08.381Z,101050.56
2022-08-01T08:34:35.484Z,101058.34
2022-08-01T08:37:03.264Z,101043.06
2022-08-01T08:39:30.910Z,101050.03
2022-08-01T08:42:09.803Z,101058.75
2022-08-01T08:44:36.716Z,101064.94
2022-08-01T08:47:06.963Z,101056.00
2022-08-01T08:49:37.301Z,101059.44
2022-08-01T08:52:05.798Z,101071.91
2022-08-01T08:54:38.592Z,101069.47
2022-08-01T08:57:06.384Z,101071.28
2022-08-01T08:59:33.374Z,101070.81
2022-08-01T09:02:00.638Z,101088.78
2022-08-01T09:04:27.837Z,101086.50
2022-08-01T09:06:55.854Z,101096.63
2022-08-01T09:09:24.172Z,101105.84
2022-08-01T09:11:57.504Z,101098.19
2022-08-01T09:14:31.502Z,101093.88
2022-08-01T09:17:11.840Z,101104.44
2022-08-01T09:19:42.034Z,101098.03
2022-08-01T09:22:20.647Z,101104.88
2022-08-01T09:25:17.280Z,101101.84
2022-08-01T09:27:46.573Z,101104.91
2022-08-01T09:30:23.523Z,101101.13
2022-08-01T09:33:11.285Z,101104.44
2022-08-01T09:35:46.462Z,101107.78
2022-08-01T09:38:23.600Z,101115.72
2022-08-01T09:40:53.828Z,101113.06
2022-08-01T09:43:23.918Z,101118.16
2022-08-01T09:45:52.989Z,101113.75
2022-08-01T09:48:22.653Z,101120.03
2022-08-01T09:50:55.611Z,101123.72
2022-08-01T09:53:41.013Z,101125.59
2022-08-01T09:56:12.749Z,101133.56
2022-08-01T09:59:00.551Z,101138.03
2022-08-01T10:01:37.045Z,101146.25
2022-08-01T10:04:13.811Z,101139.28
2022-08-01T10:06:45.913Z,101137.31
2022-08-01T10:09:14.895Z,101133.88
2022-08-01T10:11:45.313Z,101142.91
2022-08-01T10:14:18.133Z,101145.06
2022-08-01T10:16:53.206Z,101152.75
2022-08-01T10:19:24.699Z,101133.06
2022-08-01T10:21:58.787Z,101147.59
2022-08-01T10:24:29.497Z,101144.69
2022-08-01T10:27:09.065Z,101146.41
2022-08-01T10:30:19.446Z,101154.56
2022-08-01T10:32:50.530Z,101155.88
2022-08-01T10:35:46.841Z,101173.69
2022-08-01T10:38:10.950Z,101168.94
2022-08-01T10:40:42.619Z,101165.31
2022-08-01T10:43:11.970Z,101176.56
2022-08-01T10:45:39.841Z,101180.63
2022-08-01T10:48:48.447Z,101188.75
2022-08-01T10:51:18.250Z,101183.94
2022-08-01T10:53:56.087Z,101188.75
2022-08-01T10:56:26.434Z,101185.50
2022-08-01T10:59:06.621Z,101192.81
2022-08-01T11:01:44.881Z,101192.06
2022-08-01T11:04:17.580Z,101193.94
2022-08-01T11:07:05.686Z,101182.44
2022-08-01T11:09:51.704Z,101185.97
2022-08-01T11:12:23.330Z,101186.75
2022-08-01T11:15:02.641Z,101186.50
2022-08-01T11:17:42.327Z,101190.56
2022-08-01T11:20:11.875Z,101188.25
2022-08-01T11:23:07.065Z,101193.16
2022-08-01T11:26:05.653Z,101198.78
2022-08-01T11:28:32.154Z,101204.59
2022-08-01T11:31:11.773Z,101203.38
2022-08-01T11:33:45.858Z,101203.00
2022-08-01T11:36:14.696Z,101198.84
2022-08-01T11:39:00.821Z,101214.25
2022-08-01T11:41:38.219Z,101207.53
2022-08-01T11:44:13.425Z,101205.22
2022-08-01T11:47:13.345Z,101199.44
2022-08-01T11:49:49.260Z,101196.25
2022-08-01T11:52:29.183Z,101196.72
2022-08-01T11:55:16.712Z,101197.28
2022-08-01T11:57:43.798Z,101198.84
2022-08-01T12:00:20.177Z,101204.34
2022-08-01T12:02:48.276Z,101211.72
2022-08-01T12:05:21.721Z,101211.16
2022-08-01T12:07:53.899Z,101207.16
2022-08-01T12:10:23.849Z,101205.78
2022-08-01T12:12:54.567Z,101217.59
2022-08-01T12:15:25.018Z,101224.97
2022-08-01T12:18:07.607Z,101218.94
2022-08-01T12:20:56.087Z,101217.06
2022-08-01T12:23:24.390Z,101217.69
2022-08-01T12:25:54.637Z,101219.97
2022-08-01T12:28:22.093Z,101214.28
2022-08-01T12:30:50.308Z,101221.75
2022-08-01T12:33:22.021Z,101221.97
2022-08-01T12:35:49.120Z,101223.09
2022-08-01T12:38:23.595Z,101223.34
2022-08-01T12:40:53.481Z,101220.13
2022-08-01T12:43:28.695Z,101227.50
2022-08-01T12:46:00.424Z,101225.25
2022-08-01T12:48:28.922Z,101228.47
2022-08-01T12:50:59.260Z,101226.44
2022-08-01T12:53:27.032Z,101217.56
2022-08-01T12:56:06.855Z,101229.53
2022-08-01T12:58:34.997Z,101226.50
2022-08-01T13:01:27.926Z,101225.34
2022-08-01T13:04:07.179Z,101231.28
2022-08-01T13:06:36.339Z,101228.63
2022-08-01T13:09:11.447Z,101235.94
2022-08-01T13:11:38.523Z,101235.16
2022-08-01T13:14:30.321Z,101237.06
2022-08-01T13:16:57.704Z,101242.31
2022-08-01T13:19:46.183Z,101241.50
2022-08-01T13:22:13.183Z,101242.47
2022-08-01T13:24:40.078Z,101246.97
2022-08-01T13:27:06.962Z,101256.84
2022-08-01T13:29:42.258Z,101255.28
2022-08-01T13:32:27.954Z,101263.56
2022-08-01T13:35:09.619Z,101264.59
2022-08-01T13:37:42.266Z,101268.97
2022-08-01T13:40:11.790Z,101268.91
2022-08-01T13:42:39.314Z,101268.91
2022-08-01T13:45:14.624Z,101278.47
2022-08-01T13:48:03.967Z,101276.41
2022-08-01T13:50:32.957Z,101275.38
2022-08-01T13:52:59.847Z,101276.78
2022-08-01T13:55:29.910Z,101269.72
2022-08-01T13:58:00.924Z,101282.06
2022-08-01T14:00:27.797Z,101287.28
2022-08-01T14:02:54.713Z,101282.06
2022-08-01T14:05:21.593Z,101293.53
2022-08-01T14:07:48.941Z,101290.63
2022-08-01T14:10:19.271Z,101290.63
2022-08-01T14:12:48.669Z,101293.03
2022-08-01T14:15:18.089Z,101293.28
2022-08-01T14:18:03.378Z,101309.69
2022-08-01T14:20:32.985Z,101322.38
2022-08-01T14:23:00.127Z,101316.31
2022-08-01T14:26:00.374Z,101315.63
2022-08-01T14:28:13.919Z,101321.13
2022-08-01T14:30:43.429Z,101324.91
2022-08-01T14:33:11.850Z,101331.44
2022-08-01T14:36:05.994Z,101330.81
2022-08-01T14:38:31.708Z,101332.84
2022-08-01T14:41:01.067Z,101328.69
2022-08-01T14:43:32.716Z,101332.47
2022-08-01T14:46:01.704Z,101331.59
2022-08-01T14:48:28.614Z,101339.78
2022-08-01T14:50:58.246Z,101339.91
2022-08-01T14:53:25.138Z,101330.34
2022-08-01T14:55:52.059Z,101335.78
2022-08-01T14:58:18.946Z,101335.94
2022-08-01T15:00:46.321Z,101347.66
2022-08-01T15:03:13.564Z,101341.44
2022-08-01T15:05:41.511Z,101344.06
2022-08-01T15:08:08.396Z,101344.06
2022-08-01T15:10:35.283Z,101344.06
2022-08-01T15:13:02.689Z,101345.69
2022-08-01T15:15:30.140Z,101341.13
2022-08-01T15:17:57.181Z,101330.53
2022-08-01T15:20:24.298Z,101353.41
2022-08-01T15:22:51.167Z,101348.19
2022-08-01T15:25:18.059Z,101356.03
2022-08-01T15:27:44.952Z,101348.44
2022-08-01T15:30:12.581Z,101351.44
2022-08-01T15:32:39.668Z,101361.16
2022-08-01T15:35:07.818Z,101354.72
2022-08-01T15:37:37.354Z,101355.22
2022-08-01T15:40:07.043Z,101362.28
2022-08-01T15:42:33.966Z,101354.22
2022-08-01T15:45:00.882Z,101353.19
2022-08-01T15:47:27.815Z,101366.38
2022-08-01T15:49:56.702Z,101363.06
2022-08-01T15:52:30.752Z,101363.25
2022-08-01T15:54:58.800Z,101372.47
2022-08-01T15:57:25.716Z,101371.75
2022-08-01T15:59:52.631Z,101362.31
2022-08-01T16:02:19.683Z,101366.16
2022-08-01T16:04:46.644Z,101360.97
2022-08-01T16:07:13.546Z,101362.13
2022-08-01T16:09:40.470Z,101371.22
2022-08-01T16:12:08.229Z,101373.25
2022-08-01T16:14:35.515Z,101359.50
2022-08-01T16:17:02.398Z,101358.84
2022-08-01T16:19:29.281Z,101368.81
2022-08-01T16:21:56.180Z,101361.75
2022-08-01T16:24:23.724Z,101368.50
2022-08-01T16:26:50.648Z,101364.84
2022-08-01T16:29:17.547Z,101373.56
2022-08-01T16:32:02.832Z,101368.91
2022-08-01T16:34:31.339Z,101385.72
2022-08-01T16:36:58.396Z,101375.84
2022-08-01T16:39:25.622Z,101380.88
2022-08-01T16:41:55.278Z,101383.19
2022-08-01T16:44:33.237Z,101380.06
2022-08-01T16:47:02.829Z,101383.13
2022-08-01T16:49:30.209Z,101383.63
2022-08-01T16:51:57.256Z,101395.53
2022-08-01T16:54:25.348Z,101388.75
2022-08-01T16:57:08.049Z,101388.06
2022-08-01T16:59:40.856Z,101394.56
2022-08-01T17:02:09.985Z,101391.28
2022-08-01T17:04:36.995Z,101391.59
2022-08-01T17:07:04.023Z,101393.63
2022-08-01T17:09:31.069Z,101399.84
2022-08-01T17:11:58.120Z,101383.81
2022-08-01T17:14:25.033Z,101386.81
2022-08-01T17:16:52.178Z,101388.63
2022-08-01T17:19:19.102Z,101392.84
2022-08-01T17:21:53.645Z,101392.41
2022-08-01T17:24:20.547Z,101396.84
2022-08-01T17:26:47.443Z,101402.78
2022-08-01T17:29:14.360Z,101396.84
2022-08-01T17:31:41.294Z,101408.13
2022-08-01T17:34:08.205Z,101407.19
2022-08-01T17:36:35.140Z,101407.28
2022-08-01T17:39:03.305Z,101410.22
2022-08-01T17:41:30.203Z,101411.50
2022-08-01T17:43:57.092Z,101410.34
2022-08-01T17:46:24.013Z,101404.59
2022-08-01T17:48:51.055Z,101412.53
2022-08-01T17:51:22.592Z,101409.03
2022-08-01T17:53:55.648Z,101413.28
2022-08-01T17:56:25.024Z,101410.47
2022-08-01T17:58:52.429Z,101407.28
2022-08-01T18:01:20.193Z,101410.53
2022-08-01T18:03:48.080Z,101414.53
2022-08-01T18:06:19.622Z,101417.84
2022-08-01T18:08:50.004Z,101415.78
2022-08-01T18:11:21.154Z,101414.53
2022-08-01T18:13:48.142Z,101410.41
2022-08-01T18:16:16.256Z,101418.88
2022-08-01T18:18:43.901Z,101413.91
2022-08-01T18:21:12.520Z,101416.06
2022-08-01T18:23:39.653Z,101411.16
2022-08-01T18:26:08.338Z,101408.81
2022-08-01T18:28:46.503Z,101411.81
2022-08-01T18:31:16.903Z,101410.44
2022-08-01T18:33:44.057Z,101417.75
2022-08-01T18:36:17.831Z,101423.38
2022-08-01T18:38:59.425Z,101424.94
2022-08-01T18:41:26.673Z,101427.81
2022-08-01T18:44:03.995Z,101431.69
2022-08-01T18:46:34.856Z,101436.56
2022-08-01T18:49:01.998Z,101437.31
2022-08-01T18:51:29.322Z,101437.63
2022-08-01T18:53:57.711Z,101431.69
2022-08-01T18:56:24.785Z,101439.91
2022-08-01T18:58:53.217Z,101441.06
2022-08-01T19:01:20.655Z,101441.16
2022-08-01T19:03:47.555Z,101439.34
2022-08-01T19:06:14.550Z,101452.38
2022-08-01T19:08:41.637Z,101446.69
2022-08-01T19:11:08.563Z,101459.03
2022-08-01T19:13:35.513Z,101455.47
2022-08-01T19:16:02.450Z,101459.09
2022-08-01T19:18:29.410Z,101463.59
2022-08-01T19:20:56.380Z,101453.19
2022-08-01T19:23:42.160Z,101472.41
2022-08-01T19:26:12.746Z,101479.56
2022-08-01T19:28:46.519Z,101482.22
2022-08-01T19:31:14.940Z,101480.50
2022-08-01T19:33:43.165Z,101488.56
2022-08-01T19:36:17.176Z,101482.59
2022-08-01T19:38:45.332Z,101490.59
2022-08-01T19:41:13.866Z,101488.84
2022-08-01T19:43:46.197Z,101495.03
2022-08-01T19:46:17.295Z,101503.06
2022-08-01T19:48:51.485Z,101507.56
2022-08-01T19:51:22.759Z,101507.66
2022-08-01T19:54:10.409Z,101508.66
2022-08-01T19:56:46.822Z,101500.81
2022-08-01T19:59:19.700Z,101500.03
2022-08-01T20:01:48.564Z,101509.88
2022-08-01T20:04:17.036Z,101502.06
2022-08-01T20:06:45.613Z,101508.53
2022-08-01T20:09:13.805Z,101509.50
2022-08-01T20:11:45.920Z,101516.75
2022-08-01T20:14:17.565Z,101515.16
2022-08-01T20:16:44.692Z,101524.09
2022-08-01T20:19:12.502Z,101534.00
2022-08-01T20:22:02.603Z,101520.09
2022-08-01T20:24:46.123Z,101522.09
2022-08-01T20:27:15.515Z,101528.41
2022-08-01T20:29:45.776Z,101528.56
2022-08-01T20:32:14.394Z,101530.47
2022-08-01T20:34:41.449Z,101534.16
2022-08-01T20:37:13.051Z,101537.81
2022-08-01T20:39:44.215Z,101533.53
2022-08-01T20:42:12.912Z,101540.69
2022-08-01T20:44:40.478Z,101545.22
2022-08-01T20:47:07.558Z,101547.09
2022-08-01T20:49:37.272Z,101555.16
2022-08-01T20:52:12.048Z,101555.25
2022-08-01T20:54:41.921Z,101555.38
2022-08-01T20:57:17.827Z,101554.59
2022-08-01T21:00:04.217Z,101554.72
2022-08-01T21:03:04.650Z,101561.94
2022-08-01T21:05:36.992Z,101561.19
2022-08-01T21:08:24.298Z,101563.06
2022-08-01T21:10:57.743Z,101554.50
2022-08-01T21:13:36.002Z,101559.84
2022-08-01T21:16:24.153Z,101565.25
2022-08-01T21:19:24.113Z,101574.25
2022-08-01T21:22:12.231Z,101579.81
2022-08-01T21:24:57.921Z,101573.75
2022-08-01T21:27:32.875Z,101579.13
2022-08-01T21:30:07.520Z,101578.38
2022-08-01T21:32:36.566Z,101573.22
2022-08-01T21:35:06.537Z,101583.94
2022-08-01T21:37:43.733Z,101581.44
2022-08-01T21:40:11.223Z,101591.28
2022-08-01T21:42:39.582Z,101588.78
2022-08-01T21:45:09.563Z,101595.03
2022-08-01T21:47:38.006Z,101598.69
2022-08-01T21:50:06.362Z,101616.41
2022-08-01T21:53:02.511Z,101598.94
2022-08-01T21:55:57.742Z,101596.44
2022-08-01T21:58:35.507Z,101603.59
2022-08-01T22:01:33.237Z,101598.38
2022-08-01T22:04:19.329Z,101601.16
2022-08-01T22:06:49.136Z,101598.56
2022-08-01T22:09:17.047Z,101596.88
2022-08-01T22:12:01.116Z,101600.47
2022-08-01T22:14:30.095Z,101601.44
2022-08-01T22:16:58.803Z,101605.91
2022-08-01T22:19:37.808Z,101611.25
2022-08-01T22:22:44.360Z,101602.53
2022-08-01T22:25:00.410Z,101599.16
2022-08-01T22:28:06.743Z,101600.97
2022-08-01T22:30:17.627Z,101590.47
2022-08-01T22:33:07.365Z,101583.50
2022-08-01T22:35:35.776Z,101582.69
2022-08-01T22:38:07.013Z,101581.91
2022-08-01T22:40:46.032Z,101589.88
2022-08-01T22:43:26.334Z,101590.00
2022-08-01T22:46:15.331Z,101578.66
2022-08-01T22:48:49.825Z,101580.47
2022-08-01T22:51:54.813Z,101579.69
2022-08-01T22:54:36.637Z,101580.63
2022-08-01T22:57:20.760Z,101586.84
2022-08-01T23:00:04.915Z,101597.47
2022-08-01T23:02:37.407Z,101600.19
2022-08-01T23:05:08.220Z,101596.69
2022-08-01T23:07:47.352Z,101605.56
2022-08-01T23:10:14.269Z,101605.63
2022-08-01T23:12:41.964Z,101596.91
2022-08-01T23:15:09.915Z,101596.09
2022-08-01T23:17:37.532Z,101598.81
2022-08-01T23:20:07.283Z,101601.44
2022-08-01T23:22:36.947Z,101605.91
2022-08-01T23:25:08.333Z,101606.84
2022-08-01T23:28:04.303Z,101597.22
2022-08-01T23:30:31.729Z,101592.91
2022-08-01T23:32:59.225Z,101596.44
2022-08-01T23:35:27.600Z,101595.63
2022-08-01T23:38:02.436Z,101593.91
2022-08-01T23:40:34.221Z,101588.72
2022-08-01T23:43:02.872Z,101594.88
2022-08-01T23:46:02.504Z,101586.16
2022-08-01T23:48:17.779Z,101592.34
2022-08-01T23:50:44.705Z,101592.41
2022-08-01T23:53:12.794Z,101583.63
2022-08-01T23:55:43.246Z,101588.97
2022-08-01T23:58:11.453Z,101582.81
